Time;durP1;ratioP1;P1;durP2;ratioP2;P2;SDS_P1;SDS_P2;PMS_P1;PMS_P2;Temp;Humidity;BMP_temperature;BMP_pressure;BME280_temperature;BME280_humidity;BME280_pressure;Samples;Min_cycle;Max_cycle;Signal;HPM_P1;HPM_P2
2023/12/20 00:02:16;;;;;;;1.00;0.60;;;7.20;99.90;;;;;;5068997;28;20811;-72
2023/12/20 00:04:42;;;;;;;0.80;0.60;;;7.20;99.90;;;;;;5070250;28;20571;-72
2023/12/20 00:07:07;;;;;;;0.80;0.50;;;7.30;99.90;;;;;;5070055;28;20242;-72
2023/12/20 00:09:33;;;;;;;0.80;0.53;;;7.30;99.90;;;;;;5068715;28;20218;-71
2023/12/20 00:11:59;;;;;;;0.70;0.60;;;7.30;99.90;;;;;;5068448;28;20203;-72
2023/12/20 00:14:24;;;;;;;1.40;0.50;;;7.30;99.90;;;;;;5070200;28;20191;-72
2023/12/20 00:16:50;;;;;;;0.77;0.47;;;7.30;99.90;;;;;;5068605;28;20641;-71
2023/12/20 00:19:15;;;;;;;0.80;0.50;;;7.30;99.90;;;;;;5068834;28;20187;-72
2023/12/20 00:21:42;;;;;;;0.70;0.57;;;7.30;99.90;;;;;;5068659;28;20222;-73
2023/12/20 00:24:07;;;;;;;0.80;0.60;;;7.30;99.90;;;;;;5068457;28;20582;-74
2023/12/20 00:26:33;;;;;;;1.43;0.60;;;7.30;99.90;;;;;;5051489;28;20475;-73
2023/12/20 00:28:58;;;;;;;0.70;0.50;;;7.30;99.90;;;;;;5068473;28;20203;-72
2023/12/20 00:31:24;;;;;;;0.70;0.50;;;7.30;99.90;;;;;;5051446;28;20562;-72
2023/12/20 00:33:49;;;;;;;0.70;0.50;;;7.30;99.90;;;;;;5051643;28;20184;-72
2023/12/20 00:36:15;;;;;;;1.13;0.50;;;7.40;99.90;;;;;;5069302;28;20764;-72
2023/12/20 00:38:41;;;;;;;0.70;0.47;;;7.30;99.90;;;;;;5068937;28;20192;-72
2023/12/20 00:41:06;;;;;;;1.20;0.50;;;7.40;99.90;;;;;;5069270;28;20607;-73
2023/12/20 00:43:32;;;;;;;0.60;0.40;;;7.40;99.90;;;;;;5069458;28;20221;-71
2023/12/20 00:45:59;;;;;;;2.40;0.70;;;7.40;99.90;;;;;;5067815;28;20255;-73
2023/12/20 00:48:26;;;;;;;0.80;0.60;;;7.40;99.90;;;;;;5069082;28;20183;-72
2023/12/20 00:50:52;;;;;;;0.80;0.67;;;7.40;99.90;;;;;;5067802;28;20461;-73
2023/12/20 00:53:18;;;;;;;0.90;0.50;;;7.30;99.90;;;;;;5069187;28;20418;-72
2023/12/20 00:55:44;;;;;;;0.83;0.50;;;7.40;99.90;;;;;;5069133;28;20259;-72
2023/12/20 00:58:10;;;;;;;0.70;0.40;;;7.40;99.90;;;;;;5069098;28;20179;-73
2023/12/20 01:00:36;;;;;;;0.60;0.40;;;7.50;99.90;;;;;;5067810;28;20487;-73
2023/12/20 01:03:01;;;;;;;0.80;0.53;;;7.50;99.90;;;;;;5067573;28;20715;-73
2023/12/20 01:05:27;;;;;;;0.60;0.40;;;7.50;99.90;;;;;;5067310;28;20190;-73
2023/12/20 01:07:52;;;;;;;0.80;0.40;;;7.60;99.90;;;;;;5067383;28;20193;-73
2023/12/20 01:10:18;;;;;;;0.70;0.43;;;7.60;99.90;;;;;;5068841;28;20179;-72
2023/12/20 01:12:44;;;;;;;0.70;0.40;;;7.60;99.90;;;;;;5068821;28;20211;-73
2023/12/20 01:15:10;;;;;;;1.00;0.50;;;7.60;99.90;;;;;;5068691;28;20901;-73
2023/12/20 01:17:35;;;;;;;0.70;0.50;;;7.60;99.90;;;;;;5067323;28;20240;-73
2023/12/20 01:20:01;;;;;;;0.60;0.40;;;7.60;99.90;;;;;;5067560;28;20175;-73
2023/12/20 01:22:27;;;;;;;1.20;0.50;;;7.60;99.90;;;;;;5068759;28;20734;-74
2023/12/20 01:24:52;;;;;;;0.70;0.40;;;7.60;99.90;;;;;;5068680;28;20417;-73
2023/12/20 01:27:18;;;;;;;1.40;0.83;;;7.60;99.90;;;;;;5068795;28;20216;-72
2023/12/20 01:29:44;;;;;;;0.77;0.47;;;7.60;99.90;;;;;;5069468;28;20187;-72
2023/12/20 01:32:09;;;;;;;0.70;0.50;;;7.50;99.90;;;;;;5067584;28;20704;-72
2023/12/20 01:34:35;;;;;;;0.80;0.53;;;7.30;99.90;;;;;;5067906;28;20195;-74
2023/12/20 01:37:02;;;;;;;0.80;0.50;;;7.30;99.90;;;;;;5068005;28;20731;-74
2023/12/20 01:39:28;;;;;;;1.50;0.77;;;7.20;99.90;;;;;;5069380;28;21199;-72
2023/12/20 01:41:53;;;;;;;1.00;0.63;;;7.10;99.90;;;;;;5067829;28;20429;-71
2023/12/20 01:44:19;;;;;;;1.53;0.50;;;7.00;99.90;;;;;;5069358;28;20198;-71
2023/12/20 01:46:46;;;;;;;0.90;0.60;;;6.90;99.90;;;;;;5069427;28;20203;-71
2023/12/20 01:49:12;;;;;;;1.40;0.60;;;6.90;99.90;;;;;;5069312;28;20187;-71
2023/12/20 01:51:38;;;;;;;0.90;0.70;;;6.80;99.90;;;;;;5067366;28;20518;-71
2023/12/20 01:54:04;;;;;;;0.73;0.50;;;6.80;99.90;;;;;;5068730;28;20679;-71
2023/12/20 01:56:31;;;;;;;0.80;0.60;;;6.80;99.90;;;;;;5068489;28;20195;-72
2023/12/20 01:58:57;;;;;;;1.00;0.67;;;6.70;99.90;;;;;;5066755;28;20449;-72
2023/12/20 02:01:23;;;;;;;0.80;0.50;;;6.70;99.90;;;;;;5067088;28;20433;-72
2023/12/20 02:03:50;;;;;;;1.00;0.50;;;6.60;99.90;;;;;;5067140;28;20429;-71
2023/12/20 02:06:18;;;;;;;0.97;0.63;;;6.50;99.90;;;;;;5066974;28;20477;-71
2023/12/20 02:08:43;;;;;;;2.07;0.63;;;6.50;99.90;;;;;;5067056;28;20413;-70
2023/12/20 02:11:10;;;;;;;0.90;0.60;;;6.30;99.90;;;;;;5068303;28;20464;-71
2023/12/20 02:13:35;;;;;;;1.20;0.60;;;6.40;99.90;;;;;;5068410;28;20183;-70
2023/12/20 02:16:01;;;;;;;0.70;0.60;;;6.30;99.90;;;;;;5068209;28;20443;-71
2023/12/20 02:18:27;;;;;;;1.10;0.67;;;6.10;99.90;;;;;;5068487;28;20262;-71
2023/12/20 02:20:53;;;;;;;0.80;0.70;;;6.10;99.90;;;;;;5067058;28;20187;-72
2023/12/20 02:23:18;;;;;;;0.93;0.70;;;6.10;99.90;;;;;;5067013;28;20189;-70
2023/12/20 02:25:44;;;;;;;0.90;0.70;;;6.00;99.90;;;;;;5068095;28;20457;-70
2023/12/20 02:28:10;;;;;;;2.20;0.80;;;5.90;99.90;;;;;;5068547;28;20179;-70
2023/12/20 02:30:35;;;;;;;1.10;0.70;;;5.90;99.90;;;;;;5068169;28;20271;-70
2023/12/20 02:33:03;;;;;;;0.90;0.70;;;5.90;99.90;;;;;;5068355;28;20588;-72
2023/12/20 02:35:29;;;;;;;1.03;0.87;;;5.80;99.90;;;;;;5068430;28;20225;-72
2023/12/20 02:37:54;;;;;;;1.23;0.63;;;5.90;99.90;;;;;;5068255;28;20824;-72
2023/12/20 02:40:20;;;;;;;1.03;0.60;;;5.80;99.90;;;;;;5066915;28;20217;-71
2023/12/20 02:42:45;;;;;;;2.00;0.80;;;5.80;99.90;;;;;;5068159;28;20179;-71
2023/12/20 02:45:11;;;;;;;2.27;0.80;;;5.80;99.90;;;;;;5067845;28;20240;-73
2023/12/20 02:47:36;;;;;;;0.97;0.70;;;5.80;99.90;;;;;;5049807;28;20676;-72
2023/12/20 02:50:02;;;;;;;0.80;0.70;;;5.80;99.90;;;;;;5066778;28;20261;-71
2023/12/20 02:52:29;;;;;;;0.80;0.60;;;5.90;99.90;;;;;;5066485;28;20264;-71
2023/12/20 02:54:54;;;;;;;3.00;0.60;;;5.90;99.90;;;;;;5066591;28;20501;-72
2023/12/20 02:57:20;;;;;;;0.90;0.60;;;5.80;99.90;;;;;;5067930;28;20875;-72
2023/12/20 02:59:46;;;;;;;0.70;0.50;;;5.90;99.90;;;;;;5066886;28;20187;-71
2023/12/20 03:02:11;;;;;;;0.70;0.60;;;5.80;99.90;;;;;;5071728;28;20273;-73
2023/12/20 03:04:37;;;;;;;0.90;0.70;;;5.90;99.90;;;;;;5070646;28;20242;-71
2023/12/20 03:07:02;;;;;;;0.80;0.60;;;5.90;99.90;;;;;;5070646;28;20707;-71
2023/12/20 03:09:28;;;;;;;0.90;0.60;;;5.90;99.90;;;;;;5072152;28;20261;-72
2023/12/20 03:11:53;;;;;;;0.80;0.53;;;5.90;99.90;;;;;;5072362;28;20745;-72
2023/12/20 03:14:19;;;;;;;0.90;0.60;;;5.90;99.90;;;;;;5070655;28;20619;-71
2023/12/20 03:16:51;;;;;;;0.80;0.70;;;5.90;99.90;;;;;;5070619;28;20199;-72
2023/12/20 03:19:18;;;;;;;0.70;0.50;;;5.90;99.90;;;;;;5070406;28;20210;-72
2023/12/20 03:21:44;;;;;;;1.23;0.77;;;5.90;99.90;;;;;;5071382;28;20191;-71
2023/12/20 03:24:09;;;;;;;0.93;0.60;;;5.90;99.90;;;;;;5071561;28;20417;-73
2023/12/20 03:26:35;;;;;;;0.80;0.60;;;5.90;99.90;;;;;;5070185;28;20697;-71
2023/12/20 03:29:01;;;;;;;1.00;0.70;;;5.80;99.90;;;;;;5071087;28;20188;-70
2023/12/20 03:31:26;;;;;;;0.73;0.53;;;5.80;99.90;;;;;;5070881;28;20264;-71
2023/12/20 03:33:53;;;;;;;0.70;0.60;;;5.90;99.90;;;;;;5070629;28;20183;-71
2023/12/20 03:36:19;;;;;;;1.40;1.00;;;5.90;99.90;;;;;;5070823;28;20192;-70
2023/12/20 03:38:45;;;;;;;1.03;0.70;;;5.90;99.90;;;;;;5070794;28;20514;-71
2023/12/20 03:41:11;;;;;;;0.90;0.70;;;5.90;99.90;;;;;;5070570;28;20500;-72
2023/12/20 03:43:37;;;;;;;0.80;0.53;;;5.90;99.90;;;;;;5070814;28;20211;-72
2023/12/20 03:46:03;;;;;;;0.70;0.60;;;5.80;99.90;;;;;;5069248;28;20465;-71
2023/12/20 03:48:30;;;;;;;0.70;0.50;;;5.90;99.90;;;;;;5070566;28;20890;-70
2023/12/20 03:50:57;;;;;;;1.53;0.80;;;5.80;99.90;;;;;;5070498;28;21008;-71
2023/12/20 03:53:22;;;;;;;1.20;0.50;;;5.80;99.90;;;;;;5070408;28;20512;-71
2023/12/20 03:55:48;;;;;;;0.70;0.50;;;5.80;99.90;;;;;;5070154;28;20533;-71
2023/12/20 03:58:13;;;;;;;0.60;0.40;;;5.80;99.90;;;;;;5070426;28;20678;-70
2023/12/20 04:00:39;;;;;;;0.67;0.40;;;5.80;99.90;;;;;;5070284;28;20190;-70
2023/12/20 04:03:05;;;;;;;0.97;0.60;;;5.80;99.90;;;;;;5068791;28;20285;-71
2023/12/20 04:05:30;;;;;;;0.80;0.50;;;5.70;99.90;;;;;;5070057;28;20191;-71
2023/12/20 04:07:56;;;;;;;0.93;0.50;;;5.70;99.90;;;;;;5068980;28;20289;-70
2023/12/20 04:10:21;;;;;;;1.73;0.50;;;5.70;99.90;;;;;;5069928;28;20244;-70
2023/12/20 04:12:47;;;;;;;0.90;0.40;;;5.70;99.90;;;;;;5068959;28;20810;-71
2023/12/20 04:15:12;;;;;;;0.70;0.40;;;5.60;99.90;;;;;;5069842;28;20270;-70
2023/12/20 04:17:38;;;;;;;0.70;0.50;;;5.60;99.90;;;;;;5069915;28;20203;-70
2023/12/20 04:20:05;;;;;;;0.70;0.40;;;5.60;99.90;;;;;;5068596;28;20187;-72
2023/12/20 04:22:30;;;;;;;1.63;0.50;;;5.60;99.90;;;;;;5069830;28;20183;-71
2023/12/20 04:24:56;;;;;;;0.60;0.30;;;5.70;99.90;;;;;;5069633;28;20769;-72
2023/12/20 04:27:21;;;;;;;0.70;0.40;;;5.70;99.90;;;;;;5069739;28;20228;-71
2023/12/20 04:29:47;;;;;;;0.60;0.40;;;5.60;99.90;;;;;;5069710;28;20241;-71
2023/12/20 04:32:12;;;;;;;0.80;0.40;;;5.60;99.90;;;;;;5069874;28;20221;-71
2023/12/20 04:34:38;;;;;;;0.77;0.43;;;5.60;99.90;;;;;;5069653;28;20186;-72
2023/12/20 04:37:04;;;;;;;0.70;0.40;;;5.50;99.90;;;;;;5068130;28;20715;-72
2023/12/20 04:39:30;;;;;;;0.70;0.50;;;5.50;99.90;;;;;;5069512;28;20417;-71
2023/12/20 04:41:55;;;;;;;0.90;0.43;;;5.50;99.90;;;;;;5069695;28;20282;-71
2023/12/20 04:44:21;;;;;;;0.60;0.33;;;5.50;99.90;;;;;;5067537;28;20726;-72
2023/12/20 04:46:46;;;;;;;0.70;0.40;;;5.50;99.90;;;;;;5068774;28;20207;-72
2023/12/20 04:49:12;;;;;;;0.60;0.40;;;5.50;99.90;;;;;;5068438;28;20202;-72
2023/12/20 04:51:38;;;;;;;0.70;0.40;;;5.50;99.90;;;;;;5068190;28;20690;-72
2023/12/20 04:54:03;;;;;;;0.70;0.43;;;5.60;99.90;;;;;;5068683;28;20276;-72
2023/12/20 04:56:29;;;;;;;0.60;0.40;;;5.50;99.90;;;;;;5070674;28;20441;-72
2023/12/20 04:58:55;;;;;;;0.70;0.30;;;5.40;99.90;;;;;;5071138;28;20198;-72
2023/12/20 05:01:21;;;;;;;0.60;0.30;;;5.50;99.90;;;;;;5070206;28;20191;-72
2023/12/20 05:03:47;;;;;;;0.70;0.40;;;5.40;99.90;;;;;;5066475;28;20183;-72
2023/12/20 05:06:12;;;;;;;0.70;0.40;;;5.40;99.90;;;;;;5067826;28;20811;-71
2023/12/20 05:08:38;;;;;;;0.70;0.40;;;5.40;99.90;;;;;;5049817;28;20198;-71
2023/12/20 05:11:04;;;;;;;0.60;0.30;;;5.40;99.90;;;;;;5067587;28;20221;-71
2023/12/20 05:13:30;;;;;;;1.00;0.40;;;5.30;99.90;;;;;;5049365;28;20244;-71
2023/12/20 05:15:55;;;;;;;0.67;0.40;;;5.40;99.90;;;;;;5067341;28;20899;-71
2023/12/20 05:18:22;;;;;;;0.60;0.30;;;5.40;99.90;;;;;;5066080;28;20272;-71
2023/12/20 05:20:49;;;;;;;0.67;0.30;;;5.40;99.90;;;;;;5067552;28;20240;-72
2023/12/20 05:23:15;;;;;;;0.70;0.40;;;5.50;99.90;;;;;;5065725;28;20862;-71
2023/12/20 05:25:40;;;;;;;0.63;0.40;;;5.40;99.90;;;;;;5067167;28;20472;-71
2023/12/20 05:28:06;;;;;;;1.00;0.40;;;5.40;99.90;;;;;;5067201;28;20194;-71
2023/12/20 05:30:31;;;;;;;0.60;0.30;;;5.40;99.90;;;;;;5067368;28;20277;-73
2023/12/20 05:32:57;;;;;;;0.60;0.30;;;5.40;99.90;;;;;;5067350;28;20182;-71
2023/12/20 05:35:23;;;;;;;0.73;0.37;;;5.40;99.90;;;;;;5067098;28;20186;-72
2023/12/20 05:37:49;;;;;;;0.60;0.30;;;5.40;99.90;;;;;;5067312;28;20219;-73
2023/12/20 05:40:15;;;;;;;0.60;0.30;;;5.40;99.90;;;;;;5067215;28;20420;-73
2023/12/20 05:42:40;;;;;;;0.67;0.43;;;5.40;99.90;;;;;;5065590;28;20763;-72
2023/12/20 05:45:06;;;;;;;0.60;0.40;;;5.30;99.90;;;;;;5065350;28;20187;-73
2023/12/20 05:47:32;;;;;;;0.60;0.30;;;5.40;99.90;;;;;;5066668;28;20199;-71
2023/12/20 05:49:57;;;;;;;0.60;0.30;;;5.30;99.90;;;;;;5067180;28;20455;-72
2023/12/20 05:52:23;;;;;;;0.90;0.70;;;5.40;99.90;;;;;;5066869;28;20315;-72
2023/12/20 05:54:49;;;;;;;0.70;0.50;;;5.40;99.90;;;;;;5067119;28;20675;-73
2023/12/20 05:57:14;;;;;;;0.70;0.40;;;5.30;99.90;;;;;;5066811;28;20211;-73
2023/12/20 05:59:40;;;;;;;4.93;0.40;;;5.30;99.90;;;;;;5065166;28;20190;-71
2023/12/20 06:02:06;;;;;;;0.70;0.40;;;5.20;99.90;;;;;;5066997;28;20193;-72
2023/12/20 06:04:32;;;;;;;0.70;0.47;;;5.20;99.90;;;;;;5066631;28;20187;-72
2023/12/20 06:06:58;;;;;;;0.60;0.40;;;5.20;99.90;;;;;;5066435;28;20248;-72
2023/12/20 06:09:23;;;;;;;0.70;0.50;;;5.20;99.90;;;;;;5066918;28;20408;-71
2023/12/20 06:11:50;;;;;;;0.80;0.57;;;5.10;99.90;;;;;;5065193;28;20769;-70
2023/12/20 06:14:16;;;;;;;0.60;0.40;;;5.20;99.90;;;;;;5066708;28;20709;-71
2023/12/20 06:16:41;;;;;;;0.70;0.40;;;5.20;99.90;;;;;;5066749;28;20214;-72
2023/12/20 06:19:07;;;;;;;1.47;0.40;;;5.20;99.90;;;;;;5066988;28;20668;-72
2023/12/20 06:21:32;;;;;;;0.70;0.40;;;5.20;99.90;;;;;;5067508;28;20325;-72
2023/12/20 06:24:01;;;;;;;0.70;0.40;;;5.20;99.90;;;;;;5067622;28;20187;-73
2023/12/20 06:26:26;;;;;;;0.70;0.40;;;5.20;99.90;;;;;;5067180;28;20232;-70
2023/12/20 06:28:52;;;;;;;0.60;0.40;;;5.20;99.90;;;;;;5067090;28;20424;-71
2023/12/20 06:31:17;;;;;;;0.70;0.40;;;5.20;99.90;;;;;;5048675;28;20220;-71
2023/12/20 06:33:43;;;;;;;0.70;0.40;;;5.20;99.90;;;;;;5067175;28;20202;-71
2023/12/20 06:36:13;;;;;;;0.80;0.50;;;5.20;99.90;;;;;;5068997;28;20282;-70
2023/12/20 06:38:39;;;;;;;0.60;0.40;;;5.10;99.90;;;;;;5070305;28;20421;-72
2023/12/20 06:41:05;;;;;;;0.63;0.40;;;5.10;99.90;;;;;;5070681;28;20458;-72
2023/12/20 06:43:32;;;;;;;0.60;0.40;;;5.10;99.90;;;;;;5068756;28;20194;-73
2023/12/20 06:45:58;;;;;;;0.70;0.50;;;5.10;99.90;;;;;;5070162;28;21119;-72
2023/12/20 06:48:23;;;;;;;0.60;0.40;;;5.10;99.90;;;;;;5070373;28;20421;-71
2023/12/20 06:50:49;;;;;;;0.97;0.40;;;5.20;99.90;;;;;;5068799;28;20993;-72
2023/12/20 06:53:15;;;;;;;0.70;0.40;;;5.10;99.90;;;;;;5070074;28;20186;-72
2023/12/20 06:55:40;;;;;;;2.57;0.47;;;5.20;99.90;;;;;;5068447;28;20187;-72
2023/12/20 06:58:06;;;;;;;0.87;0.50;;;5.20;99.90;;;;;;5068683;28;20187;-72
2023/12/20 07:00:32;;;;;;;0.70;0.50;;;5.10;99.90;;;;;;5070056;28;20599;-72
2023/12/20 07:02:58;;;;;;;0.70;0.40;;;5.10;99.90;;;;;;5070288;28;21023;-72
2023/12/20 07:05:25;;;;;;;0.60;0.40;;;5.20;99.90;;;;;;5068390;28;20528;-72
2023/12/20 07:07:50;;;;;;;0.60;0.37;;;5.20;99.90;;;;;;5068672;28;20277;-72
2023/12/20 07:10:16;;;;;;;0.70;0.43;;;5.20;99.90;;;;;;5069804;28;20209;-72
2023/12/20 07:12:42;;;;;;;1.77;0.40;;;5.20;99.90;;;;;;5069781;28;20648;-72
2023/12/20 07:15:08;;;;;;;0.77;0.40;;;5.20;99.90;;;;;;5068405;28;20446;-72
2023/12/20 07:17:34;;;;;;;2.07;0.50;;;5.30;99.90;;;;;;5069892;28;20708;-71
2023/12/20 07:20:03;;;;;;;1.27;0.40;;;5.30;99.90;;;;;;5069991;28;21230;-70
2023/12/20 07:22:31;;;;;;;0.70;0.40;;;5.30;99.90;;;;;;5069917;28;20424;-72
2023/12/20 07:24:57;;;;;;;0.70;0.40;;;5.40;99.90;;;;;;5069629;28;20428;-70
2023/12/20 07:27:23;;;;;;;4.60;0.40;;;5.40;99.90;;;;;;5050931;28;20494;-71
2023/12/20 07:29:48;;;;;;;0.70;0.40;;;5.40;99.90;;;;;;5069540;28;20568;-73
2023/12/20 07:32:14;;;;;;;0.60;0.30;;;5.40;99.90;;;;;;5068252;28;20251;-71
2023/12/20 07:34:40;;;;;;;0.70;0.40;;;5.40;99.90;;;;;;5068450;28;20183;-71
2023/12/20 07:37:05;;;;;;;0.60;0.30;;;5.40;99.90;;;;;;5069669;28;20202;-72
2023/12/20 07:39:31;;;;;;;0.70;0.40;;;5.50;99.90;;;;;;5069781;28;20205;-71
2023/12/20 07:41:56;;;;;;;0.60;0.40;;;5.50;99.90;;;;;;5070337;28;20187;-71
2023/12/20 07:44:22;;;;;;;0.70;0.40;;;5.50;99.90;;;;;;5070270;28;20268;-68
2023/12/20 07:46:48;;;;;;;0.77;0.40;;;5.50;99.90;;;;;;5052003;28;20584;-70
2023/12/20 07:49:14;;;;;;;0.60;0.30;;;5.50;99.90;;;;;;5070402;28;20190;-70
2023/12/20 07:51:39;;;;;;;0.67;0.40;;;5.60;99.90;;;;;;5070214;28;20465;-72
2023/12/20 07:54:05;;;;;;;0.70;0.40;;;5.60;99.90;;;;;;5068734;28;20175;-71
2023/12/20 07:56:31;;;;;;;0.60;0.40;;;5.60;99.90;;;;;;5070196;28;20199;-71
2023/12/20 07:58:56;;;;;;;0.70;0.40;;;5.60;99.90;;;;;;5068672;28;20186;-72
2023/12/20 08:01:22;;;;;;;0.60;0.40;;;5.60;99.90;;;;;;5068279;28;20194;-72
2023/12/20 08:03:49;;;;;;;1.00;0.40;;;5.60;99.90;;;;;;5070005;28;20190;-72
2023/12/20 08:06:17;;;;;;;1.57;0.40;;;5.60;99.90;;;;;;5069751;28;20440;-72
2023/12/20 08:08:42;;;;;;;0.70;0.40;;;5.70;99.90;;;;;;5068021;28;20436;-71
2023/12/20 08:11:08;;;;;;;0.70;0.40;;;5.70;99.90;;;;;;5069519;28;20472;-71
2023/12/20 08:13:34;;;;;;;0.70;0.40;;;5.70;99.90;;;;;;5069622;28;20218;-71
2023/12/20 08:15:59;;;;;;;0.70;0.40;;;5.70;99.90;;;;;;5068236;28;20233;-72
2023/12/20 08:18:25;;;;;;;0.90;0.70;;;5.70;99.90;;;;;;5069448;28;20179;-71
2023/12/20 08:20:53;;;;;;;0.90;0.73;;;5.70;99.90;;;;;;5069716;28;20625;-69
2023/12/20 08:23:20;;;;;;;0.93;0.60;;;5.80;99.90;;;;;;5069536;28;20183;-71
2023/12/20 08:25:46;;;;;;;1.20;0.60;;;5.80;99.90;;;;;;5069288;28;20462;-72
2023/12/20 08:28:12;;;;;;;0.70;0.50;;;5.70;99.90;;;;;;5069273;28;20455;-71
2023/12/20 08:30:38;;;;;;;0.80;0.60;;;5.80;99.90;;;;;;5067741;28;20179;-72
2023/12/20 08:33:04;;;;;;;0.70;0.60;;;5.80;99.90;;;;;;5069193;28;21127;-73
2023/12/20 08:35:30;;;;;;;0.80;0.60;;;5.80;99.90;;;;;;5069280;28;20739;-73
2023/12/20 08:37:56;;;;;;;1.07;0.63;;;5.70;99.90;;;;;;5068156;28;20489;-70
2023/12/20 08:40:22;;;;;;;0.80;0.60;;;5.70;99.90;;;;;;5069315;28;20440;-72
2023/12/20 08:42:47;;;;;;;0.90;0.70;;;5.70;99.90;;;;;;5068022;28;20439;-70
2023/12/20 08:45:13;;;;;;;0.77;0.60;;;5.80;99.90;;;;;;5069401;28;20718;-72
2023/12/20 08:47:40;;;;;;;0.90;0.70;;;5.80;99.90;;;;;;5069840;28;20633;-72
2023/12/20 08:50:07;;;;;;;0.77;0.50;;;5.80;99.90;;;;;;5069237;28;20661;-73
2023/12/20 08:52:33;;;;;;;2.93;0.67;;;5.80;99.90;;;;;;5067554;28;20504;-72
2023/12/20 08:54:58;;;;;;;0.70;0.50;;;5.90;99.90;;;;;;5067463;28;20421;-73
2023/12/20 08:57:25;;;;;;;1.40;0.60;;;5.80;99.90;;;;;;5068844;28;21028;-73
2023/12/20 08:59:51;;;;;;;1.40;0.60;;;5.80;99.90;;;;;;5067499;28;20668;-72
2023/12/20 09:02:17;;;;;;;4.87;0.70;;;5.80;99.90;;;;;;5069261;28;20428;-72
2023/12/20 09:04:43;;;;;;;0.80;0.60;;;5.80;99.90;;;;;;5069234;28;20459;-73
2023/12/20 09:07:24;;;;;;;2.30;0.60;;;5.80;99.90;;;;;;5067491;28;20473;-74
2023/12/20 09:09:51;;;;;;;1.20;0.70;;;5.90;99.90;;;;;;5069006;28;20420;-73
2023/12/20 09:12:20;;;;;;;1.23;0.60;;;6.00;99.90;;;;;;5068741;28;21048;-73
2023/12/20 09:14:47;;;;;;;1.07;1.00;;;6.00;99.90;;;;;;5069386;28;20501;-71
2023/12/20 09:17:12;;;;;;;1.40;1.30;;;6.00;99.90;;;;;;5067685;28;20524;-73
2023/12/20 09:19:38;;;;;;;1.13;0.70;;;6.00;99.90;;;;;;5068962;28;20421;-72
2023/12/20 09:22:05;;;;;;;0.83;0.80;;;6.00;99.90;;;;;;5068996;28;20941;-71
2023/12/20 09:24:31;;;;;;;1.97;1.00;;;6.00;99.90;;;;;;5069085;28;20504;-72
2023/12/20 09:26:56;;;;;;;1.23;0.90;;;6.00;99.90;;;;;;5067146;28;20583;-73
2023/12/20 09:29:22;;;;;;;1.17;0.90;;;6.00;99.90;;;;;;5068696;28;20189;-71
2023/12/20 09:31:48;;;;;;;1.00;0.90;;;5.90;99.90;;;;;;5068513;28;20672;-71
2023/12/20 09:34:15;;;;;;;1.03;0.83;;;5.80;99.90;;;;;;5068353;28;20414;-71
2023/12/20 09:36:46;;;;;;;2.50;1.00;;;5.80;99.90;;;;;;5068320;28;20205;-74
2023/12/20 09:39:13;;;;;;;1.97;1.17;;;5.70;99.90;;;;;;5068386;28;20475;-72
2023/12/20 09:41:44;;;;;;;3.83;0.93;;;5.60;99.90;;;;;;5067286;28;20520;-69
2023/12/20 09:44:14;;;;;;;1.90;1.10;;;5.60;99.90;;;;;;5067960;28;20475;-71
2023/12/20 09:46:44;;;;;;;2.70;1.40;;;5.60;99.90;;;;;;5066749;28;20437;-70
2023/12/20 09:49:10;;;;;;;1.73;1.17;;;5.60;99.90;;;;;;5067793;28;20496;-71
2023/12/20 09:51:36;;;;;;;1.87;1.40;;;5.60;99.90;;;;;;5068074;28;20465;-70
2023/12/20 09:54:03;;;;;;;2.20;1.43;;;5.50;99.90;;;;;;5067980;28;20414;-70
2023/12/20 09:56:29;;;;;;;2.60;1.17;;;5.50;99.90;;;;;;5067896;28;20233;-71
2023/12/20 09:58:55;;;;;;;4.03;1.00;;;5.40;99.90;;;;;;5068379;28;20422;-71
2023/12/20 10:01:21;;;;;;;1.90;1.10;;;5.40;99.90;;;;;;5068398;28;20421;-72
2023/12/20 10:03:47;;;;;;;5.07;1.10;;;5.30;99.90;;;;;;5068575;28;20932;-73
2023/12/20 10:06:13;;;;;;;3.20;1.40;;;5.40;99.90;;;;;;5068637;28;20552;-70
2023/12/20 10:08:39;;;;;;;4.63;1.20;;;5.30;99.90;;;;;;5068807;28;20235;-73
2023/12/20 10:11:05;;;;;;;4.87;1.60;;;5.20;99.90;;;;;;5071056;28;20533;-72
2023/12/20 10:13:31;;;;;;;2.37;1.37;;;5.30;99.90;;;;;;5072815;28;21236;-72
2023/12/20 10:15:57;;;;;;;1.97;1.53;;;5.30;99.90;;;;;;5072416;28;20466;-72
2023/12/20 10:18:23;;;;;;;7.00;0.90;;;5.30;99.90;;;;;;5071208;28;20174;-72
2023/12/20 10:20:48;;;;;;;2.00;1.80;;;5.30;99.90;;;;;;5074484;28;20455;-72
2023/12/20 10:23:16;;;;;;;2.90;1.17;;;5.20;99.90;;;;;;5074672;28;20183;-72
2023/12/20 10:25:41;;;;;;;4.40;1.07;;;5.30;99.90;;;;;;5074035;28;20305;-72
2023/12/20 10:28:18;;;;;;;5.27;1.73;;;5.30;99.90;;;;;;5073665;28;21049;-72
2023/12/20 10:30:44;;;;;;;2.57;1.37;;;5.30;99.90;;;;;;5071891;28;20194;-71
2023/12/20 10:33:10;;;;;;;4.30;2.17;;;5.30;99.90;;;;;;5071657;28;20405;-74
2023/12/20 10:35:38;;;;;;;6.67;1.50;;;5.40;99.90;;;;;;5071084;28;20524;-74
2023/12/20 10:38:05;;;;;;;3.47;1.93;;;5.40;99.90;;;;;;5071111;28;20421;-72
2023/12/20 10:40:34;;;;;;;2.33;1.23;;;5.50;99.90;;;;;;5071156;28;20409;-73
2023/12/20 10:43:01;;;;;;;2.17;1.00;;;5.60;99.90;;;;;;5070058;28;20409;-72
2023/12/20 10:45:26;;;;;;;1.70;1.00;;;5.60;99.90;;;;;;5069607;28;20444;-73
2023/12/20 10:47:52;;;;;;;4.30;1.33;;;5.70;99.90;;;;;;5071894;28;20547;-72
2023/12/20 10:50:20;;;;;;;2.30;1.00;;;5.70;99.90;;;;;;5052805;28;20187;-73
2023/12/20 10:52:47;;;;;;;2.20;1.30;;;5.70;99.90;;;;;;5070552;28;20457;-72
2023/12/20 10:55:13;;;;;;;2.33;1.37;;;5.80;99.90;;;;;;5070844;28;20466;-72
2023/12/20 10:57:39;;;;;;;1.90;1.10;;;5.70;99.90;;;;;;5069259;28;20436;-73
2023/12/20 11:00:14;;;;;;;3.00;1.30;;;5.70;99.90;;;;;;5070736;28;20210;-72
2023/12/20 11:02:40;;;;;;;3.17;1.33;;;5.70;99.90;;;;;;5070906;28;20469;-72
2023/12/20 11:05:38;;;;;;;7.87;1.70;;;5.80;99.90;;;;;;5070976;28;20938;-72
2023/12/20 11:08:16;;;;;;;2.47;1.13;;;5.70;99.90;;;;;;5071532;28;20479;-72
2023/12/20 11:11:14;;;;;;;2.23;1.13;;;5.80;99.90;;;;;;5069243;28;20512;-73
2023/12/20 11:14:15;;;;;;;2.23;1.10;;;5.80;99.90;;;;;;5069254;28;20935;-72
2023/12/20 11:16:42;;;;;;;5.53;1.20;;;5.70;99.90;;;;;;5062877;28;20530;-71
2023/12/20 11:19:07;;;;;;;3.10;1.03;;;5.70;99.90;;;;;;5069012;28;20496;-72
2023/12/20 11:21:33;;;;;;;5.77;1.80;;;5.70;99.90;;;;;;5069896;28;20531;-70
2023/12/20 11:24:00;;;;;;;1.40;0.80;;;5.70;99.90;;;;;;5070436;28;20428;-72
2023/12/20 11:26:29;;;;;;;3.00;0.90;;;5.80;99.90;;;;;;5070417;28;20488;-72
2023/12/20 11:29:29;;;;;;;2.20;1.30;;;5.80;99.90;;;;;;5070415;28;20527;-72
2023/12/20 11:31:54;;;;;;;2.60;1.30;;;5.80;99.90;;;;;;5070466;28;21124;-74
2023/12/20 11:34:20;;;;;;;3.03;1.20;;;5.80;99.90;;;;;;5070501;28;20582;-72
2023/12/20 11:36:46;;;;;;;2.70;1.00;;;5.80;99.90;;;;;;5070395;28;20575;-71
2023/12/20 11:39:13;;;;;;;4.67;1.53;;;5.90;99.90;;;;;;5070211;28;20262;-71
2023/12/20 11:41:38;;;;;;;3.10;1.40;;;5.90;99.90;;;;;;5068590;28;20187;-71
2023/12/20 11:44:04;;;;;;;3.77;1.10;;;5.90;99.90;;;;;;5068503;28;20429;-71
2023/12/20 11:46:31;;;;;;;3.23;1.40;;;5.90;99.90;;;;;;5069864;28;20205;-71
2023/12/20 11:48:57;;;;;;;3.83;1.33;;;5.90;99.90;;;;;;5070161;28;20428;-74
2023/12/20 11:51:23;;;;;;;4.83;1.60;;;5.90;99.90;;;;;;5069827;28;20469;-71
2023/12/20 11:53:53;;;;;;;2.57;1.00;;;5.80;99.90;;;;;;5070028;28;21157;-71
2023/12/20 11:56:18;;;;;;;4.50;1.00;;;5.90;99.90;;;;;;5068633;28;20289;-71
2023/12/20 11:58:44;;;;;;;4.67;1.00;;;5.90;99.90;;;;;;5069472;28;20880;-72
2023/12/20 12:01:10;;;;;;;2.03;1.13;;;5.90;99.90;;;;;;5069721;28;20179;-71
2023/12/20 12:03:36;;;;;;;3.27;1.00;;;5.90;99.90;;;;;;5051582;28;20432;-71
2023/12/20 12:06:04;;;;;;;2.70;1.10;;;5.90;99.90;;;;;;5068234;28;20448;-71
2023/12/20 12:08:29;;;;;;;1.97;1.20;;;5.90;99.90;;;;;;5069366;28;20183;-72
2023/12/20 12:10:55;;;;;;;5.20;0.90;;;5.90;99.90;;;;;;5068065;28;20425;-72
2023/12/20 12:13:21;;;;;;;4.23;1.10;;;5.80;99.90;;;;;;5067916;28;20654;-73
2023/12/20 12:15:48;;;;;;;2.40;1.40;;;5.60;99.90;;;;;;5069085;28;20437;-72
2023/12/20 12:18:17;;;;;;;1.93;0.87;;;5.60;99.90;;;;;;5068843;28;20203;-73
2023/12/20 12:20:43;;;;;;;3.90;1.10;;;5.60;99.90;;;;;;5068940;28;20449;-71
2023/12/20 12:23:09;;;;;;;2.70;0.90;;;5.60;99.90;;;;;;5069126;28;20413;-72
2023/12/20 12:25:37;;;;;;;3.30;1.20;;;5.60;99.90;;;;;;5067411;28;20191;-73
2023/12/20 12:28:03;;;;;;;4.83;1.00;;;5.60;99.90;;;;;;5069176;28;20171;-72
2023/12/20 12:30:29;;;;;;;3.33;0.70;;;5.60;99.90;;;;;;5068789;28;20926;-73
2023/12/20 12:32:56;;;;;;;2.80;1.00;;;5.50;99.90;;;;;;5067825;28;20457;-73
2023/12/20 12:35:22;;;;;;;3.53;0.70;;;5.50;99.90;;;;;;5068925;28;20219;-73
2023/12/20 12:37:47;;;;;;;1.87;0.87;;;5.50;99.90;;;;;;5066872;28;21123;-70
2023/12/20 12:40:15;;;;;;;2.37;1.10;;;5.50;99.90;;;;;;5068514;28;20182;-71
2023/12/20 12:42:43;;;;;;;2.17;0.80;;;5.50;99.90;;;;;;5066903;28;20680;-72
2023/12/20 12:45:09;;;;;;;6.00;1.07;;;5.50;99.90;;;;;;5068271;28;20420;-72
2023/12/20 12:47:35;;;;;;;2.00;0.90;;;5.50;99.90;;;;;;5068430;28;20942;-72
2023/12/20 12:50:01;;;;;;;9.93;1.23;;;5.50;99.90;;;;;;5068262;28;20432;-70
2023/12/20 12:52:27;;;;;;;1.20;0.90;;;5.50;99.90;;;;;;5067931;28;20882;-71
2023/12/20 12:54:53;;;;;;;7.33;1.30;;;5.50;99.90;;;;;;5067967;28;20418;-73